Time;durP1;ratioP1;P1;durP2;ratioP2;P2;SDS_P1;SDS_P2;PMS_P1;PMS_P2;Temp;Humidity;BMP_temperature;BMP_pressure;BME280_temperature;BME280_humidity;BME280_pressure;Samples;Min_cycle;Max_cycle;Signal;HPM_P1;HPM_P2
2022/12/27 00:02:19;;;;;;;9.30;1.95;;;;;;;;;;5079370;28;20047;-90
2022/12/27 00:04:45;;;;;;;6.55;1.95;;;;;;;;;;5096009;28;20136;-90
2022/12/27 00:07:11;;;;;;;9.05;1.83;;;;;;;;;;5064041;28;20051;-91
2022/12/27 00:09:37;;;;;;;9.73;2.42;;;;;;;;;;5062695;28;20044;-91
2022/12/27 00:12:03;;;;;;;6.20;2.38;;;;;;;;;;5079168;28;20083;-90
2022/12/27 00:14:29;;;;;;;9.52;1.83;;;;;;;;;;5079251;28;20134;-90
2022/12/27 00:16:55;;;;;;;11.98;2.60;;;;;;;;;;5062526;28;20269;-90
2022/12/27 00:19:21;;;;;;;3.63;1.98;;;;;;;;;;5062351;28;20047;-90
2022/12/27 00:21:47;;;;;;;9.65;3.35;;;;;;;;;;5096214;28;20035;-90
2022/12/27 00:24:13;;;;;;;15.10;3.47;;;;;;;;;;5062740;28;20051;-90
2022/12/27 00:26:40;;;;;;;4.25;1.63;;;;;;;;;;5079219;28;20052;-91
2022/12/27 00:29:07;;;;;;;6.50;2.38;;;;;;;;;;5061644;28;20054;-91
2022/12/27 00:31:33;;;;;;;16.55;2.97;;;;;;;;;;5079224;28;20047;-91
2022/12/27 00:34:00;;;;;;;5.80;2.78;;;;;;;;;;5078804;28;20138;-91
2022/12/27 00:36:27;;;;;;;9.63;2.88;;;;;;;;;;5096440;28;20578;-91
2022/12/27 00:38:54;;;;;;;2.00;1.50;;;;;;;;;;5079626;28;20074;-91
2022/12/27 00:41:20;;;;;;;6.13;2.42;;;;;;;;;;5079018;28;20051;-91
2022/12/27 00:43:46;;;;;;;6.22;2.63;;;;;;;;;;5079417;28;20047;-92
2022/12/27 00:46:13;;;;;;;4.47;2.38;;;;;;;;;;5096508;28;20047;-91
2022/12/27 00:48:39;;;;;;;7.45;2.22;;;;;;;;;;5079892;28;20463;-91
2022/12/27 00:51:07;;;;;;;7.40;1.92;;;;;;;;;;5095915;28;20040;-91
2022/12/27 00:53:34;;;;;;;6.82;2.05;;;;;;;;;;5078763;28;20067;-90
2022/12/27 00:56:00;;;;;;;8.02;3.20;;;;;;;;;;5079092;28;20079;-91
2022/12/27 00:58:27;;;;;;;11.90;2.42;;;;;;;;;;5078723;28;20499;-92
2022/12/27 01:00:53;;;;;;;7.22;2.25;;;;;;;;;;5078992;28;20491;-91
2022/12/27 01:03:19;;;;;;;4.85;2.63;;;;;;;;;;5078796;28;20051;-91
2022/12/27 01:05:46;;;;;;;7.30;2.20;;;;;;;;;;5078586;28;20052;-91
2022/12/27 01:08:12;;;;;;;19.70;4.00;;;;;;;;;;5078966;28;20380;-91
2022/12/27 01:10:39;;;;;;;10.52;2.63;;;;;;;;;;5095417;28;20051;-91
2022/12/27 01:13:06;;;;;;;9.40;2.85;;;;;;;;;;5078820;28;20048;-92
2022/12/27 01:15:32;;;;;;;5.55;2.50;;;;;;;;;;5062398;28;20047;-90
2022/12/27 01:17:58;;;;;;;4.55;2.00;;;;;;;;;;5078808;28;20051;-91
2022/12/27 01:20:24;;;;;;;8.98;3.03;;;;;;;;;;5062000;28;20138;-91
2022/12/27 01:22:50;;;;;;;8.60;2.47;;;;;;;;;;5078528;28;20043;-92
2022/12/27 01:25:16;;;;;;;7.50;2.13;;;;;;;;;;5061811;28;20481;-91
2022/12/27 01:27:42;;;;;;;13.20;3.03;;;;;;;;;;5062242;28;20495;-91
2022/12/27 01:30:08;;;;;;;9.57;2.60;;;;;;;;;;5062258;28;20407;-90
2022/12/27 01:32:34;;;;;;;15.68;2.80;;;;;;;;;;5095309;28;20085;-91
2022/12/27 01:35:01;;;;;;;7.25;2.60;;;;;;;;;;5062122;28;20423;-92
2022/12/27 01:37:28;;;;;;;11.02;3.05;;;;;;;;;;5062521;28;20083;-91
2022/12/27 01:39:54;;;;;;;5.78;2.13;;;;;;;;;;5063679;28;20058;-91
2022/12/27 01:45:15;;;;;;;11.25;2.50;;;;;;;;;;5098741;28;20051;-90
2022/12/27 01:47:53;;;;;;;5.00;1.95;;;;;;;;;;5081608;28;20047;-90
2022/12/27 01:50:25;;;;;;;7.63;2.10;;;;;;;;;;5098551;28;20059;-90
2022/12/27 01:52:51;;;;;;;7.97;1.80;;;;;;;;;;5098225;28;20511;-90
2022/12/27 01:55:27;;;;;;;9.07;2.22;;;;;;;;;;5081670;28;20058;-90
2022/12/27 01:57:55;;;;;;;6.80;1.80;;;;;;;;;;5081741;28;20071;-91
2022/12/27 02:00:21;;;;;;;9.35;1.98;;;;;;;;;;5081384;28;20044;-90
2022/12/27 02:02:48;;;;;;;4.45;1.45;;;;;;;;;;5064851;28;20507;-90
2022/12/27 02:05:15;;;;;;;3.67;1.40;;;;;;;;;;5081234;28;20461;-91
2022/12/27 02:07:54;;;;;;;4.30;1.40;;;;;;;;;;5098688;28;20048;-90
2022/12/27 02:10:20;;;;;;;12.50;3.67;;;;;;;;;;5081530;28;20407;-89
2022/12/27 02:12:46;;;;;;;5.05;1.55;;;;;;;;;;5081322;28;20096;-91
2022/12/27 02:15:12;;;;;;;8.05;2.05;;;;;;;;;;5081523;28;20459;-90
2022/12/27 02:17:38;;;;;;;7.47;2.42;;;;;;;;;;5081008;28;20137;-91
2022/12/27 02:20:13;;;;;;;9.30;2.22;;;;;;;;;;5064663;28;20063;-90
2022/12/27 02:25:36;;;;;;;6.38;2.25;;;;;;;;;;5098763;28;20133;-90
2022/12/27 02:28:02;;;;;;;7.40;1.90;;;;;;;;;;5081176;28;20047;-90
2022/12/27 02:30:31;;;;;;;6.00;2.53;;;;;;;;;;5081004;28;20091;-90
2022/12/27 02:33:03;;;;;;;5.50;2.45;;;;;;;;;;5080625;28;20055;-91
2022/12/27 02:35:32;;;;;;;12.10;4.03;;;;;;;;;;5080606;28;20048;-90
2022/12/27 02:38:02;;;;;;;5.80;2.25;;;;;;;;;;5097798;28;20048;-90
2022/12/27 02:54:30;;;;;;;13.82;2.85;;;;;;;;;;5097193;28;20066;-90
2022/12/27 02:57:08;;;;;;;8.18;2.45;;;;;;;;;;5080394;28;20048;-90
2022/12/27 03:03:19;;;;;;;7.32;3.35;;;;;;;;;;5097137;28;20496;-89
2022/12/27 03:05:26;;;;;;;8.90;2.00;;;;;;;;;;5096814;28;20482;-91
2022/12/27 03:08:17;;;;;;;4.90;1.95;;;;;;;;;;5080466;28;20872;-90
2022/12/27 03:16:30;;;;;;;6.68;2.28;;;;;;;;;;5097070;28;20040;-90
2022/12/27 03:18:58;;;;;;;5.57;1.80;;;;;;;;;;5080001;28;20043;-91
2022/12/27 03:27:04;;;;;;;3.30;1.65;;;;;;;;;;5096717;28;20130;-91
2022/12/27 03:35:07;;;;;;;3.30;1.65;;;;;;;;;;5097330;28;20039;-91
2022/12/27 03:40:27;;;;;;;9.15;2.00;;;;;;;;;;5096773;28;20281;-92
2022/12/27 03:43:09;;;;;;;17.13;2.45;;;;;;;;;;5080382;28;20051;-92
2022/12/27 03:48:38;;;;;;;6.45;2.13;;;;;;;;;;5050395;28;20139;-92
2022/12/27 03:51:05;;;;;;;9.63;3.70;;;;;;;;;;5079652;28;20052;-92
2022/12/27 03:53:39;;;;;;;6.93;2.67;;;;;;;;;;5079658;28;20060;-92
2022/12/27 03:56:06;;;;;;;10.52;3.00;;;;;;;;;;5096629;28;20055;-91
2022/12/27 03:58:32;;;;;;;7.10;3.47;;;;;;;;;;5063642;28;20050;-91
2022/12/27 04:00:58;;;;;;;7.78;2.22;;;;;;;;;;5079902;28;20067;-91
2022/12/27 04:03:24;;;;;;;6.43;2.05;;;;;;;;;;5078222;28;20050;-90
2022/12/27 04:05:50;;;;;;;11.95;3.45;;;;;;;;;;5079011;28;20055;-91
2022/12/27 04:35:42;;;;;;;11.95;2.47;;;;;;;;;;5081727;28;20454;-92
2022/12/27 04:38:08;;;;;;;4.47;1.88;;;;;;;;;;5079057;28;20479;-90
2022/12/27 04:57:02;;;;;;;13.30;2.08;;;;;;;;;;5081282;28;20054;-90
2022/12/27 05:02:13;;;;;;;10.13;2.58;;;;;;;;;;5081291;28;20081;-90
2022/12/27 05:04:39;;;;;;;10.43;4.70;;;;;;;;;;5061675;28;20083;-92
2022/12/27 05:15:24;;;;;;;8.32;2.47;;;;;;;;;;5084314;28;20074;-92
2022/12/27 05:17:50;;;;;;;11.35;2.60;;;;;;;;;;5082694;28;20560;-90
2022/12/27 05:20:16;;;;;;;6.85;3.63;;;;;;;;;;5100299;28;20040;-91
2022/12/27 05:25:38;;;;;;;8.75;2.95;;;;;;;;;;5098717;28;20529;-90
2022/12/27 05:28:05;;;;;;;12.68;2.63;;;;;;;;;;5082131;28;20422;-89
2022/12/27 05:30:32;;;;;;;18.40;3.67;;;;;;;;;;5098987;28;20051;-90
2022/12/27 05:32:58;;;;;;;10.40;2.92;;;;;;;;;;5082160;28;20087;-90
2022/12/27 05:35:24;;;;;;;8.70;2.85;;;;;;;;;;5098848;28;20506;-89
2022/12/27 05:37:50;;;;;;;19.42;4.10;;;;;;;;;;5065248;28;20472;-89
2022/12/27 05:40:16;;;;;;;6.95;2.53;;;;;;;;;;5082515;28;20571;-90
2022/12/27 05:42:42;;;;;;;11.32;3.42;;;;;;;;;;5081833;28;20052;-90
2022/12/27 05:45:09;;;;;;;10.50;3.28;;;;;;;;;;5082503;28;20193;-90
2022/12/27 05:47:35;;;;;;;6.93;2.22;;;;;;;;;;5098799;28;20459;-90
2022/12/27 05:50:01;;;;;;;6.20;2.33;;;;;;;;;;5082144;28;20433;-90
2022/12/27 05:52:27;;;;;;;16.30;2.92;;;;;;;;;;5098589;28;20495;-91
2022/12/27 05:54:53;;;;;;;7.95;3.05;;;;;;;;;;5081769;28;20130;-91
2022/12/27 05:57:19;;;;;;;5.57;2.55;;;;;;;;;;5098709;28;20388;-92
2022/12/27 05:59:45;;;;;;;10.43;2.38;;;;;;;;;;5081810;28;20454;-90
2022/12/27 06:02:11;;;;;;;12.32;3.45;;;;;;;;;;5081522;28;20423;-91
2022/12/27 06:04:37;;;;;;;7.47;2.60;;;;;;;;;;5064882;28;20551;-90
2022/12/27 06:07:03;;;;;;;13.90;3.13;;;;;;;;;;5081091;28;20488;-90
2022/12/27 06:09:29;;;;;;;16.58;2.85;;;;;;;;;;5098603;28;20052;-91
2022/12/27 06:11:55;;;;;;;8.77;2.65;;;;;;;;;;5081549;28;20112;-90
2022/12/27 06:14:21;;;;;;;12.63;3.42;;;;;;;;;;5097900;28;20396;-90
2022/12/27 06:16:47;;;;;;;12.57;3.17;;;;;;;;;;5081341;28;20480;-90
2022/12/27 06:19:13;;;;;;;11.65;3.85;;;;;;;;;;5098318;28;20064;-90
2022/12/27 06:21:39;;;;;;;10.98;3.30;;;;;;;;;;5064590;28;20075;-91
2022/12/27 06:24:06;;;;;;;6.78;2.80;;;;;;;;;;5098209;28;20380;-90
2022/12/27 06:26:32;;;;;;;7.00;3.47;;;;;;;;;;5080580;28;20055;-91
2022/12/27 06:28:58;;;;;;;13.45;4.38;;;;;;;;;;5064227;28;20529;-90
2022/12/27 06:31:25;;;;;;;8.35;3.65;;;;;;;;;;5080753;28;20464;-89
2022/12/27 06:33:51;;;;;;;16.70;4.20;;;;;;;;;;5081013;28;20056;-90
2022/12/27 06:36:19;;;;;;;5.40;2.70;;;;;;;;;;5080738;28;20040;-90
2022/12/27 06:38:45;;;;;;;8.05;2.90;;;;;;;;;;5081258;28;20052;-90
2022/12/27 06:41:18;;;;;;;11.02;3.33;;;;;;;;;;5097677;28;20108;-91
2022/12/27 06:43:45;;;;;;;12.02;2.97;;;;;;;;;;5097841;28;20403;-91
2022/12/27 06:46:13;;;;;;;8.02;2.65;;;;;;;;;;5097516;28;20047;-90
2022/12/27 06:48:39;;;;;;;13.07;2.85;;;;;;;;;;5080973;28;20035;-91
2022/12/27 06:51:05;;;;;;;11.65;2.92;;;;;;;;;;5064686;28;20047;-90
2022/12/27 06:53:31;;;;;;;6.32;2.50;;;;;;;;;;5080891;28;20172;-90
2022/12/27 06:55:57;;;;;;;15.32;3.15;;;;;;;;;;5080632;28;20159;-90
2022/12/27 06:58:23;;;;;;;6.57;2.60;;;;;;;;;;5063895;28;20104;-90
2022/12/27 07:00:50;;;;;;;19.15;3.97;;;;;;;;;;5097268;28;20044;-90
2022/12/27 07:03:16;;;;;;;4.28;2.00;;;;;;;;;;5080811;28;20093;-91
2022/12/27 07:05:42;;;;;;;8.70;2.50;;;;;;;;;;5063624;28;20056;-91
2022/12/27 07:08:08;;;;;;;12.25;3.20;;;;;;;;;;5063696;28;20403;-90
2022/12/27 07:10:35;;;;;;;8.75;2.67;;;;;;;;;;5079988;28;20142;-90
2022/12/27 07:13:02;;;;;;;10.60;3.05;;;;;;;;;;5097508;28;20059;-91
2022/12/27 07:15:28;;;;;;;11.80;3.65;;;;;;;;;;5080616;28;20091;-92
2022/12/27 07:17:54;;;;;;;15.93;3.30;;;;;;;;;;5080426;28;20051;-92
2022/12/27 07:20:21;;;;;;;10.85;2.72;;;;;;;;;;5064760;28;20079;-90
2022/12/27 07:22:47;;;;;;;7.50;2.75;;;;;;;;;;5080353;28;20221;-90
2022/12/27 07:25:13;;;;;;;14.00;3.08;;;;;;;;;;5079807;28;20055;-90
2022/12/27 07:27:39;;;;;;;7.20;3.22;;;;;;;;;;5063879;28;20047;-89
2022/12/27 07:30:05;;;;;;;9.68;3.00;;;;;;;;;;5063055;28;20052;-90
2022/12/27 07:32:31;;;;;;;8.02;3.60;;;;;;;;;;5063181;28;20090;-90
2022/12/27 07:34:57;;;;;;;11.32;2.63;;;;;;;;;;5079574;28;20043;-90
2022/12/27 07:37:23;;;;;;;14.55;3.63;;;;;;;;;;5079531;28;20514;-90
2022/12/27 07:39:50;;;;;;;9.73;2.92;;;;;;;;;;5062945;28;20492;-91
2022/12/27 07:42:16;;;;;;;18.85;3.28;;;;;;;;;;5079881;28;20048;-90
2022/12/27 07:44:42;;;;;;;20.25;3.70;;;;;;;;;;5079787;28;20081;-93
2022/12/27 07:47:08;;;;;;;13.60;3.00;;;;;;;;;;5063199;28;20411;-90
2022/12/27 07:49:34;;;;;;;15.57;3.92;;;;;;;;;;5096619;28;20055;-93
2022/12/27 07:52:00;;;;;;;10.13;2.45;;;;;;;;;;5079613;28;20139;-92
2022/12/27 07:54:26;;;;;;;11.20;3.42;;;;;;;;;;5096594;28;20469;-92
2022/12/27 07:56:52;;;;;;;16.23;3.42;;;;;;;;;;5079704;28;20132;-92
2022/12/27 07:59:18;;;;;;;8.40;2.50;;;;;;;;;;5080516;28;20052;-92
2022/12/27 08:04:29;;;;;;;10.93;2.85;;;;;;;;;;5096734;28;20051;-90
2022/12/27 08:07:02;;;;;;;18.55;3.20;;;;;;;;;;5062918;28;20107;-91
2022/12/27 08:09:30;;;;;;;12.00;3.83;;;;;;;;;;5079883;28;20169;-92
2022/12/27 08:11:56;;;;;;;8.32;3.30;;;;;;;;;;5079782;28;20059;-92
2022/12/27 08:14:22;;;;;;;9.93;3.33;;;;;;;;;;5096477;28;20089;-92
2022/12/27 08:16:48;;;;;;;12.13;3.45;;;;;;;;;;5096682;28;20044;-91
2022/12/27 08:19:14;;;;;;;15.75;4.15;;;;;;;;;;5096610;28;20055;-92
2022/12/27 08:21:40;;;;;;;11.18;3.95;;;;;;;;;;5096978;28;20083;-93
2022/12/27 08:24:06;;;;;;;8.95;2.95;;;;;;;;;;5079792;28;20052;-92
2022/12/27 08:26:32;;;;;;;9.52;2.10;;;;;;;;;;5063497;28;20043;-92
2022/12/27 08:28:59;;;;;;;15.75;3.47;;;;;;;;;;5079466;28;20055;-91
2022/12/27 08:31:25;;;;;;;8.32;2.35;;;;;;;;;;5096169;28;20058;-92
2022/12/27 08:33:51;;;;;;;12.48;3.30;;;;;;;;;;5078897;28;20051;-91
2022/12/27 08:36:17;;;;;;;17.48;3.20;;;;;;;;;;5079350;28;20072;-92
2022/12/27 08:38:43;;;;;;;13.30;3.38;;;;;;;;;;5062682;28;20051;-92
2022/12/27 08:41:09;;;;;;;10.63;2.83;;;;;;;;;;5062746;28;20040;-92
2022/12/27 08:43:35;;;;;;;11.35;3.40;;;;;;;;;;5079053;28;20054;-90
2022/12/27 08:46:02;;;;;;;7.45;3.17;;;;;;;;;;5079554;28;20048;-91
2022/12/27 08:48:30;;;;;;;11.90;3.35;;;;;;;;;;5095915;28;20112;-91
2022/12/27 08:50:56;;;;;;;10.65;2.88;;;;;;;;;;5095957;28;20063;-91
2022/12/27 08:53:22;;;;;;;28.58;4.32;;;;;;;;;;5078634;28;20062;-90
2022/12/27 08:55:48;;;;;;;9.25;3.60;;;;;;;;;;5062280;28;20055;-90
2022/12/27 08:58:14;;;;;;;11.00;3.95;;;;;;;;;;5079173;28;20052;-93
2022/12/27 09:00:40;;;;;;;12.48;3.08;;;;;;;;;;5062696;28;20097;-93
2022/12/27 09:03:06;;;;;;;19.70;3.63;;;;;;;;;;5079274;28;20090;-92
2022/12/27 09:05:34;;;;;;;7.25;2.83;;;;;;;;;;5062153;28;20103;-92
2022/12/27 09:08:00;;;;;;;17.23;3.55;;;;;;;;;;5079332;28;20100;-91
2022/12/27 09:10:26;;;;;;;10.13;3.58;;;;;;;;;;5078733;28;20134;-92
2022/12/27 09:12:52;;;;;;;11.57;2.85;;;;;;;;;;5062040;28;20126;-91
2022/12/27 09:15:18;;;;;;;17.08;3.35;;;;;;;;;;5078790;28;20073;-92
2022/12/27 09:17:44;;;;;;;5.80;3.55;;;;;;;;;;5062573;28;20039;-90
2022/12/27 09:20:11;;;;;;;12.57;2.97;;;;;;;;;;5079288;28;20056;-91
2022/12/27 09:22:37;;;;;;;11.15;4.63;;;;;;;;;;5079111;28;20564;-91
2022/12/27 09:25:04;;;;;;;11.48;3.33;;;;;;;;;;5078590;28;20109;-91
2022/12/27 09:27:30;;;;;;;16.85;3.83;;;;;;;;;;5078696;28;20051;-91
2022/12/27 09:29:56;;;;;;;9.77;3.28;;;;;;;;;;5078551;28;20054;-91
2022/12/27 09:32:26;;;;;;;8.63;2.67;;;;;;;;;;5078663;28;20113;-91
2022/12/27 09:34:53;;;;;;;11.65;3.15;;;;;;;;;;5078662;28;20485;-91
2022/12/27 09:37:19;;;;;;;5.43;3.10;;;;;;;;;;5079503;28;20138;-91
2022/12/27 09:39:45;;;;;;;7.35;2.47;;;;;;;;;;5078966;28;20052;-91
2022/12/27 09:42:36;;;;;;;10.85;4.43;;;4.10;99.90;;;;;;5095919;28;20484;-93
2022/12/27 09:45:09;;;;;;;12.02;4.82;;;;;;;;;;5079390;28;20058;-92
2022/12/27 09:47:55;;;;;;;7.68;2.92;;;;;;;;;;5095939;28;20133;-91
2022/12/27 09:50:27;;;;;;;3.80;2.72;;;;;;;;;;5095961;28;20083;-91
2022/12/27 09:52:56;;;;;;;12.88;3.83;;;;;;;;;;5078815;28;20047;-91
2022/12/27 09:55:38;;;;;;;9.38;2.70;;;;;;;;;;5096766;28;20040;-91
2022/12/27 09:58:10;;;;;;;11.80;3.28;;;;;;;;;;5096205;28;20060;-92
2022/12/27 10:00:36;;;;;;;13.27;3.50;;;;;;;;;;5078786;28;20058;-91
2022/12/27 10:03:06;;;;;;;8.13;3.17;;;;;;;;;;5065891;28;20047;-92
2022/12/27 10:05:34;;;;;;;11.20;3.35;;;;;;;;;;5065379;28;20510;-92
2022/12/27 10:08:18;;;;;;;4.47;2.25;;;;;;;;;;5082154;28;20102;-92
2022/12/27 10:10:44;;;;;;;;;;;;;;;;;;5099897;28;20101;-91
2022/12/27 10:13:16;;;;;;;8.27;3.55;;;;;;;;;;5081707;28;19967;-91
2022/12/27 10:15:51;;;;;;;8.30;2.80;;;;;;;;;;5099549;28;20043;-92
2022/12/27 10:18:20;;;;;;;9.13;2.92;;;;;;;;;;5081890;28;20058;-91
2022/12/27 10:21:01;;;;;;;12.45;3.38;;;;;;;;;;5098449;28;20047;-90
2022/12/27 10:23:38;;;;;;;5.10;2.88;;;;;;;;;;5081783;28;20105;-92
2022/12/27 10:26:06;;;;;;;12.88;4.40;;;;;;;;;;5082031;28;20047;-90
2022/12/27 10:28:38;;;;;;;14.57;3.67;;;;;;;;;;5081315;28;20051;-91
2022/12/27 10:31:04;;;;;;;11.70;2.83;;;;;;;;;;5081742;28;20380;-91
2022/12/27 10:33:34;;;;;;;12.40;4.05;;;;;;;;;;5081087;28;20052;-91
2022/12/27 10:36:04;;;;;;;17.77;3.30;;;;;;;;;;5081830;28;20415;-91
2022/12/27 10:38:32;;;;;;;8.88;3.28;;;;;;;;;;5080787;28;20138;-89
2022/12/27 10:41:05;;;;;;;4.90;2.38;;;;;;;;;;5098277;28;20060;-91
2022/12/27 10:43:34;;;;;;;9.43;3.38;;;;;;;;;;5098099;28;20063;-89
2022/12/27 10:46:11;;;;;;;11.02;2.83;;;;;;;;;;5080452;28;20055;-88
2022/12/27 10:48:37;;;;;;;13.18;3.25;;;;;;;;;;5097631;28;20084;-89
2022/12/27 10:51:08;;;;;;;11.38;2.95;;;;;;;;;;5080337;28;20058;-89
2022/12/27 10:53:36;;;;;;;11.82;5.53;;;;;;;;;;5097308;28;20082;-89
2022/12/27 10:56:13;;;;;;;13.75;3.70;;;;;;;;;;5097318;28;20444;-89
2022/12/27 10:58:47;;;;;;;15.23;4.53;;;;;;;;;;5080203;28;20050;-89
2022/12/27 11:01:24;;;;;;;10.77;3.83;;;;;;;;;;5097076;28;20047;-89
2022/12/27 11:03:50;;;;;;;8.57;4.60;;;;;;;;;;5080132;28;20051;-89
2022/12/27 11:06:19;;;;;;;12.82;3.60;;;;;;;;;;5096773;28;20146;-89
2022/12/27 11:08:45;;;;;;;14.25;4.32;;;;;;;;;;5080056;28;20168;-89
2022/12/27 11:11:17;;;;;;;15.25;4.95;;;;;;;;;;5097194;28;20116;-90
2022/12/27 11:13:43;;;;;;;6.60;3.33;;;;;;;;;;5079555;28;20407;-89
2022/12/27 11:16:29;;;;;;;12.18;3.50;;;;;;;;;;5096571;28;20384;-89
2022/12/27 11:18:57;;;;;;;6.78;3.95;;;;;;;;;;5096971;28;20126;-89
2022/12/27 11:21:23;;;;;;;14.60;3.40;;;;;;;;;;5080116;28;20144;-89
2022/12/27 11:23:51;;;;;;;15.20;3.58;;;;;;;;;;5079716;28;20055;-89
2022/12/27 11:26:22;;;;;;;12.32;3.30;;;;;;;;;;5079657;28;20088;-89
2022/12/27 11:28:53;;;;;;;10.57;3.53;;;;;;;;;;5079476;28;20079;-90
2022/12/27 11:31:40;;;;;;;12.50;3.15;;;;;;;;;;5096934;28;20058;-89
2022/12/27 11:34:17;;;;;;;8.55;3.03;;;;;;;;;;5096319;28;20423;-89
2022/12/27 11:36:47;;;;;;;4.88;2.72;;;;;;;;;;5096690;28;20073;-89
2022/12/27 11:39:32;;;;;;;5.47;2.65;;;;;;;;;;5079641;28;20384;-89
2022/12/27 11:41:59;;;;;;;9.15;2.28;;;;;;;;;;5079609;28;20082;-89
2022/12/27 11:44:34;;;;;;;16.48;3.00;;;;;;;;;;5080960;28;20560;-89
2022/12/27 11:47:27;;;;;;;5.30;2.60;;;;;;;;;;5081702;28;20047;-89
2022/12/27 11:50:13;;;;;;;6.10;2.42;;;;;;;;;;5058529;28;20166;-91
2022/12/27 11:52:42;;;;;;;9.60;2.88;;;;;;;;;;5082891;28;20051;-89
2022/12/27 11:55:20;;;;;;;12.35;3.10;;;;;;;;;;5083169;28;20087;-89
2022/12/27 11:57:47;;;;;;;10.18;3.20;;;;;;;;;;5082195;28;20048;-90
2022/12/27 12:00:19;;;;;;;8.23;2.58;;;;;;;;;;5080244;28;20112;-90
2022/12/27 12:03:03;;;;;;;6.05;2.60;;;;;;;;;;5080351;28;20048;-91
2022/12/27 12:05:40;;;;;;;9.45;3.03;;;;;;;;;;5079274;28;20050;-90
2022/12/27 12:08:22;;;;;;;13.05;2.65;;;;;;;;;;5098558;28;20112;-90
2022/12/27 12:10:48;;;;;;;7.32;3.08;;;;;;;;;;5098963;28;20040;-90
2022/12/27 12:13:14;;;;;;;9.02;2.13;;;;;;;;;;5082029;28;20054;-90
2022/12/27 12:15:46;;;;;;;6.60;2.45;;;;;;;;;;5081567;28;20062;-90
2022/12/27 12:18:28;;;;;;;8.85;3.22;;;;;;;;;;5098221;28;20415;-90
2022/12/27 12:21:00;;;;;;;10.65;3.15;;;;;;;;;;5081656;28;20124;-91
2022/12/27 12:23:26;;;;;;;11.85;2.55;;;;;;;;;;5080550;28;20055;-90
2022/12/27 12:26:05;;;;;;;10.02;2.72;;;;;;;;;;5081165;28;20050;-89
2022/12/27 12:28:31;;;;;;;9.88;2.97;;;;;;;;;;5097939;28;20530;-90
2022/12/27 12:31:36;;;;;;;9.02;3.00;;;6.70;99.90;;;;;;5079554;28;20079;-90
2022/12/27 12:34:21;;;;;;;13.02;2.55;;;;;;;;;;5078991;28;20297;-91
2022/12/27 12:37:10;;;;;;;6.82;2.50;;;;;;;;;;5079042;28;20056;-90
2022/12/27 12:39:50;;;;;;;4.93;2.17;;;;;;;;;;5071098;28;20051;-90
2022/12/27 12:42:19;;;;;;;7.95;2.22;;;;;;;;;;5078844;28;20073;-90
2022/12/27 12:44:53;;;;;;;12.48;3.10;;;;;;;;;;5079098;28;20039;-90
2022/12/27 12:47:26;;;;;;;7.63;2.58;;;;;;;;;;5078628;28;20048;-90
2022/12/27 12:49:52;;;;;;;10.60;3.00;;;;;;;;;;5078669;28;20061;-90
2022/12/27 12:52:18;;;;;;;15.30;2.97;;;;;;;;;;5078939;28;20075;-90
2022/12/27 12:54:59;;;;;;;8.45;2.40;;;;;;;;;;5078460;28;20563;-90
2022/12/27 12:57:25;;;;;;;6.78;2.20;;;;;;;;;;5078848;28;20463;-90
2022/12/27 13:00:03;;;;;;;7.05;2.50;;;;;;;;;;5079093;28;20070;-91
2022/12/27 13:02:33;;;;;;;8.23;2.55;;;;;;;;;;5078642;28;20054;-90
2022/12/27 13:05:20;;;;;;;7.70;2.70;;;6.60;99.90;;;;;;5078066;28;20039;-90
2022/12/27 13:08:05;;;;;;;9.38;2.33;;;;;;;;;;5078814;28;20056;-90
2022/12/27 13:10:44;;;;;;;5.82;2.65;;;;;;;;;;5079004;28;20087;-90
2022/12/27 13:13:10;;;;;;;7.00;2.25;;;;;;;;;;5078112;28;20043;-90
2022/12/27 13:15:51;;;;;;;12.52;2.80;;;;;;;;;;5078716;28;20407;-90
2022/12/27 13:18:27;;;;;;;7.78;2.80;;;;;;;;;;5079239;28;20054;-90
2022/12/27 13:21:12;;;;;;;8.05;2.60;;;;;;;;;;5078736;28;20495;-90
2022/12/27 13:23:41;;;;;;;9.73;2.92;;;;;;;;;;5078696;28;20047;-90
2022/12/27 13:26:17;;;;;;;10.48;2.67;;;;;;;;;;5078392;28;20126;-89
2022/12/27 13:28:46;;;;;;;9.98;2.42;;;;;;;;;;5078118;28;20048;-91
2022/12/27 13:31:24;;;;;;;3.85;2.45;;;;;;;;;;5095520;28;20556;-90
2022/12/27 13:34:02;;;;;;;11.30;3.15;;;;;;;;;;5113921;28;20047;-90
2022/12/27 13:36:33;;;;;;;10.70;2.30;;;;;;;;;;5099263;28;20395;-90
2022/12/27 13:39:18;;;;;;;9.88;3.35;;;;;;;;;;5087738;28;20062;-90
2022/12/27 13:41:47;;;;;;;5.40;2.60;;;;;;;;;;5090517;28;20404;-90
2022/12/27 13:44:21;;;;;;;4.03;2.50;;;;;;;;;;5106282;28;20052;-90
2022/12/27 13:46:50;;;;;;;10.95;2.65;;;;;;;;;;5086856;28;20113;-90
2022/12/27 13:49:29;;;;;;;11.55;2.95;;;;;;;;;;5082718;28;20407;-90
2022/12/27 13:52:16;;;;;;;23.27;3.40;;;;;;;;;;5099017;28;20048;-90
2022/12/27 13:55:08;;;;;;;6.32;2.78;;;;;;;;;;5082789;28;20055;-90
2022/12/27 13:57:35;;;;;;;6.72;3.00;;;;;;;;;;5079181;28;20143;-90
2022/12/27 14:00:04;;;;;;;14.45;3.20;;;;;;;;;;5081598;28;20112;-90
2022/12/27 14:02:39;;;;;;;13.70;3.65;;;;;;;;;;5099136;28;20047;-91
2022/12/27 14:05:21;;;;;;;5.68;3.78;;;;;;;;;;5082151;28;20066;-90
2022/12/27 14:08:02;;;;;;;10.25;3.83;;;;;;;;;;5062063;28;20139;-90
2022/12/27 14:10:39;;;;;;;9.00;3.40;;;;;;;;;;5063115;28;20048;-90
2022/12/27 14:13:09;;;;;;;8.45;3.95;;;;;;;;;;5062552;28;20044;-90
2022/12/27 14:15:38;;;;;;;6.88;3.58;;;;;;;;;;5063140;28;20052;-90
2022/12/27 14:18:30;;;;;;;13.73;3.45;;;;;;;;;;5063001;28;20112;-91
2022/12/27 14:21:12;;;;;;;14.50;4.53;;;;;;;;;;5057202;28;20047;-90
2022/12/27 14:23:41;;;;;;;14.55;5.63;;;;;;;;;;5062937;28;20047;-90
2022/12/27 14:26:26;;;;;;;12.98;4.53;;;;;;;;;;5062794;28;20080;-90
2022/12/27 14:29:13;;;;;;;19.13;3.85;;;6.00;99.90;;;;;;5062291;28;20132;-90
2022/12/27 14:31:40;;;;;;;8.73;3.47;;;;;;;;;;5078534;28;20052;-90
2022/12/27 14:34:21;;;;;;;10.70;3.92;;;;;;;;;;5061662;28;20055;-90
2022/12/27 14:37:00;;;;;;;9.00;4.60;;;;;;;;;;5061637;28;20047;-90
2022/12/27 14:39:32;;;;;;;6.50;3.78;;;;;;;;;;5078578;28;20121;-91
2022/12/27 14:42:32;;;;;;;8.70;4.18;;;6.20;99.90;;;;;;5078976;28;20051;-90
2022/12/27 14:45:17;;;;;;;13.52;4.20;;;;;;;;;;5062084;28;20058;-90
2022/12/27 14:47:49;;;;;;;6.95;3.40;;;;;;;;;;5060860;28;20127;-91
2022/12/27 14:50:30;;;;;;;19.65;5.03;;;;;;;;;;5062280;28;20052;-90
2022/12/27 14:53:00;;;;;;;12.77;4.30;;;;;;;;;;5077844;28;20508;-90
2022/12/27 14:55:29;;;;;;;19.25;5.43;;;;;;;;;;5096064;28;20054;-90
2022/12/27 14:57:55;;;;;;;15.98;4.97;;;;;;;;;;5061226;28;20056;-90
2022/12/27 15:00:22;;;;;;;9.05;3.88;;;;;;;;;;5061429;28;20063;-90
2022/12/27 15:03:07;;;;;;;16.55;4.93;;;;;;;;;;5060978;28;20056;-90
2022/12/27 15:05:55;;;;;;;9.93;4.53;;;;;;;;;;5080890;28;20040;-90
2022/12/27 15:08:41;;;;;;;10.90;4.55;;;;;;;;;;5098029;28;20234;-90
2022/12/27 15:11:45;;;;;;;12.00;4.85;;;6.10;99.90;;;;;;5080576;28;20495;-90
2022/12/27 15:14:11;;;;;;;11.27;5.03;;;;;;;;;;5116200;28;20048;-90
2022/12/27 15:16:46;;;;;;;21.30;4.55;;;;;;;;;;5081666;28;20396;-90
2022/12/27 15:19:24;;;;;;;13.73;6.32;;;;;;;;;;5081613;28;20062;-90
2022/12/27 15:21:57;;;;;;;8.88;5.28;;;;;;;;;;5082337;28;20134;-90
2022/12/27 15:24:23;;;;;;;10.70;5.43;;;;;;;;;;5098390;28;20053;-91
2022/12/27 15:26:52;;;;;;;11.02;5.53;;;;;;;;;;5081159;28;20055;-89
2022/12/27 15:29:28;;;;;;;12.85;5.80;;;;;;;;;;5081156;28;21124;-90
2022/12/27 15:32:00;;;;;;;13.95;6.07;;;;;;;;;;5081186;28;20048;-90
2022/12/27 15:34:45;;;;;;;12.93;6.72;;;;;;;;;;5080214;28;20081;-90
2022/12/27 15:37:49;;;;;;;9.95;6.10;;;5.60;99.90;;;;;;5080071;28;20079;-91
2022/12/27 15:40:24;;;;;;;18.08;7.18;;;;;;;;;;5097233;28;20070;-90
2022/12/27 15:42:58;;;;;;;18.90;7.30;;;;;;;;;;5080473;28;20051;-90
2022/12/27 15:45:33;;;;;;;10.83;8.40;;;;;;;;;;5080871;28;20047;-91
2022/12/27 15:48:14;;;;;;;16.52;7.28;;;;;;;;;;5081112;28;20661;-90
2022/12/27 15:51:16;;;;;;;10.27;6.78;;;;;;;;;;5096836;28;20051;-91
2022/12/27 15:53:45;;;;;;;12.63;7.40;;;;;;;;;;5019278;28;20926;-90
2022/12/27 15:56:19;;;;;;;15.82;8.45;;;;;;;;;;5085833;28;20050;-91
2022/12/27 15:59:05;;;;;;;16.85;7.82;;;;;;;;;;5096668;28;20055;-91
2022/12/27 16:01:33;;;;;;;17.25;7.53;;;;;;;;;;5096953;28;20048;-91
2022/12/27 16:04:19;;;;;;;14.85;8.80;;;;;;;;;;5079808;28;20058;-89
2022/12/27 16:06:49;;;;;;;13.30;7.43;;;;;;;;;;5079098;28;20562;-88
2022/12/27 16:09:18;;;;;;;15.50;8.02;;;;;;;;;;5079836;28;20047;-88
2022/12/27 16:12:00;;;;;;;21.85;8.13;;;;;;;;;;5096070;28;20048;-90
2022/12/27 16:14:28;;;;;;;15.13;7.68;;;;;;;;;;5079382;28;20056;-89
2022/12/27 16:16:58;;;;;;;18.27;7.93;;;;;;;;;;5096335;28;20454;-88
2022/12/27 16:19:30;;;;;;;23.48;8.80;;;;;;;;;;5079764;28;20078;-90
2022/12/27 16:21:56;;;;;;;15.75;8.45;;;;;;;;;;5096325;28;20048;-89
2022/12/27 16:24:24;;;;;;;13.68;8.32;;;;;;;;;;5096017;28;20567;-89
2022/12/27 16:27:03;;;;;;;16.92;8.50;;;;;;;;;;5079130;28;20105;-88
2022/12/27 16:29:32;;;;;;;13.60;8.77;;;;;;;;;;5096280;28;20051;-88
2022/12/27 16:32:17;;;;;;;16.58;8.90;;;;;;;;;;5096802;28;20052;-90
2022/12/27 16:34:44;;;;;;;12.25;8.85;;;;;;;;;;5078939;28;20043;-90
2022/12/27 16:37:22;;;;;;;19.27;8.93;;;;;;;;;;5062406;28;20100;-90
2022/12/27 16:40:09;;;;;;;14.68;9.70;;;;;;;;;;5096916;28;20075;-90
2022/12/27 16:42:51;;;;;;;20.15;8.95;;;;;;;;;;5078663;28;20086;-90